createdAt,value
2022-09-14T00:00:29.961Z,98845.00
2022-09-14T00:02:59.426Z,98846.00
2022-09-14T00:05:28.754Z,98854.00
2022-09-14T00:07:57.942Z,98847.00
2022-09-14T00:10:27.115Z,98849.00
2022-09-14T00:12:56.368Z,98859.00
2022-09-14T00:15:25.628Z,98855.00
2022-09-14T00:17:54.830Z,98857.00
2022-09-14T00:20:24.125Z,98850.00
2022-09-14T00:22:53.329Z,98854.00
2022-09-14T00:25:22.563Z,98853.00
2022-09-14T00:27:51.840Z,98847.00
2022-09-14T00:30:22.203Z,98855.00
2022-09-14T00:32:53.075Z,98857.00
2022-09-14T00:35:22.344Z,98867.00
2022-09-14T00:37:52.570Z,98865.00
2022-09-14T00:40:22.079Z,98865.00
2022-09-14T00:42:51.883Z,98863.00
2022-09-14T00:45:23.977Z,98866.00
2022-09-14T00:47:56.506Z,98864.00
2022-09-14T00:50:25.885Z,98864.00
2022-09-14T00:52:56.501Z,98873.00
2022-09-14T00:55:25.996Z,98875.00
2022-09-14T00:57:56.545Z,98878.00
2022-09-14T01:00:29.954Z,98883.00
2022-09-14T01:02:59.705Z,98880.00
2022-09-14T01:06:11.832Z,98888.00
2022-09-14T01:09:20.731Z,98900.00
2022-09-14T01:12:26.540Z,98900.00
2022-09-14T01:15:44.362Z,98902.00
2022-09-14T01:18:28.893Z,98902.00
2022-09-14T01:21:14.838Z,98906.00
2022-09-14T01:24:25.090Z,98903.00
2022-09-14T01:27:45.301Z,98910.00
2022-09-14T01:30:21.942Z,98910.00
2022-09-14T01:33:28.357Z,98910.00
2022-09-14T01:36:02.903Z,98917.00
2022-09-14T01:38:51.407Z,98912.00
2022-09-14T01:41:30.309Z,98912.00
2022-09-14T01:44:24.523Z,98909.00
2022-09-14T01:47:07.878Z,98905.00
2022-09-14T01:49:48.870Z,98906.00
2022-09-14T01:52:27.872Z,98906.00
2022-09-14T01:55:25.548Z,98912.00
2022-09-14T01:58:10.968Z,98915.00
2022-09-14T02:00:49.583Z,98919.00
2022-09-14T02:03:29.450Z,98920.00
2022-09-14T02:06:17.243Z,98926.00
2022-09-14T02:08:46.484Z,98935.00
2022-09-14T02:11:15.734Z,98936.00
2022-09-14T02:13:45.124Z,98938.00
2022-09-14T02:16:14.852Z,98935.00
2022-09-14T02:18:44.692Z,98937.00
2022-09-14T02:21:29.052Z,98939.00
2022-09-14T02:24:01.646Z,98936.00
2022-09-14T02:26:31.460Z,98947.00
2022-09-14T02:29:01.015Z,98941.00
2022-09-14T02:32:00.144Z,98953.00
2022-09-14T02:35:07.486Z,98954.00
2022-09-14T02:38:17.358Z,98948.00
2022-09-14T02:41:18.488Z,98952.00
2022-09-14T02:44:06.622Z,98956.00
2022-09-14T02:46:59.959Z,98950.00
2022-09-14T02:50:13.342Z,98950.00
2022-09-14T02:52:59.247Z,98959.00
2022-09-14T02:55:37.683Z,98952.00
2022-09-14T02:58:11.493Z,98953.00
2022-09-14T03:00:47.729Z,98946.00
2022-09-14T03:03:21.621Z,98953.00
2022-09-14T03:05:50.963Z,98949.00
2022-09-14T03:08:20.173Z,98951.00
2022-09-14T03:10:49.369Z,98943.00
2022-09-14T03:13:18.728Z,98948.00
2022-09-14T03:15:48.128Z,98945.00
2022-09-14T03:18:17.831Z,98940.00
2022-09-14T03:20:47.022Z,98949.00
2022-09-14T03:23:16.543Z,98940.00
2022-09-14T03:25:46.817Z,98948.00
2022-09-14T03:28:16.003Z,98950.00
2022-09-14T03:30:45.231Z,98949.00
2022-09-14T03:33:16.474Z,98954.00
2022-09-14T03:35:45.606Z,98948.00
2022-09-14T03:38:14.732Z,98950.00
2022-09-14T03:40:44.057Z,98953.00
2022-09-14T03:43:14.642Z,98957.00
2022-09-14T03:45:44.221Z,98952.00
2022-09-14T03:48:16.472Z,98942.00
2022-09-14T03:50:45.809Z,98936.00
2022-09-14T03:53:15.103Z,98926.00
2022-09-14T03:55:44.355Z,98926.00
2022-09-14T03:58:13.581Z,98927.00
2022-09-14T04:00:42.801Z,98921.00
2022-09-14T04:03:12.743Z,98920.00
2022-09-14T04:05:42.040Z,98919.00
2022-09-14T04:08:11.294Z,98920.00
2022-09-14T04:10:42.050Z,98915.00
2022-09-14T04:13:11.296Z,98911.00
2022-09-14T04:15:40.493Z,98906.00
2022-09-14T04:18:09.928Z,98911.00
2022-09-14T04:20:39.322Z,98897.00
2022-09-14T04:23:08.519Z,98894.00
2022-09-14T04:25:37.759Z,98890.00
2022-09-14T04:28:20.052Z,98888.00
2022-09-14T04:31:02.777Z,98881.00
2022-09-14T04:33:35.363Z,98879.00
2022-09-14T04:36:15.052Z,98868.00
2022-09-14T04:38:45.381Z,98873.00
2022-09-14T04:41:21.633Z,98877.00
2022-09-14T04:43:54.098Z,98878.00
2022-09-14T04:46:27.924Z,98861.00
2022-09-14T04:48:57.411Z,98847.00
2022-09-14T04:51:30.580Z,98846.00
2022-09-14T04:54:02.422Z,98853.00
2022-09-14T04:56:37.993Z,98856.00
2022-09-14T04:59:08.130Z,98855.00
2022-09-14T05:01:42.272Z,98850.00
2022-09-14T05:04:13.158Z,98846.00
2022-09-14T05:06:45.421Z,98841.00
2022-09-14T05:09:20.130Z,98835.00
2022-09-14T05:11:52.803Z,98838.00
2022-09-14T05:14:22.039Z,98828.00
2022-09-14T05:16:51.352Z,98828.00
2022-09-14T05:19:20.715Z,98828.00
2022-09-14T05:21:50.004Z,98836.00
2022-09-14T05:24:20.774Z,98836.00
2022-09-14T05:26:56.056Z,98814.00
2022-09-14T05:29:30.529Z,98792.00
2022-09-14T05:32:00.154Z,98794.00
2022-09-14T05:34:29.375Z,98787.00
2022-09-14T05:36:58.691Z,98792.00
2022-09-14T05:39:27.847Z,98774.00
2022-09-14T05:41:56.997Z,98760.00
2022-09-14T05:44:26.222Z,98760.00
2022-09-14T05:46:55.414Z,98758.00
2022-09-14T05:49:26.389Z,98759.00
2022-09-14T05:51:55.606Z,98750.00
2022-09-14T05:54:24.822Z,98756.00
2022-09-14T05:56:54.047Z,98742.00
2022-09-14T05:59:23.310Z,98742.00
2022-09-14T06:01:52.548Z,98736.00
2022-09-14T06:04:21.828Z,98729.00
2022-09-14T06:07:07.948Z,98718.00
2022-09-14T06:09:40.212Z,98715.00
2022-09-14T06:12:09.819Z,98715.00
2022-09-14T06:14:38.966Z,98711.00
2022-09-14T06:17:08.375Z,98705.00
2022-09-14T06:19:37.525Z,98701.00
2022-09-14T06:22:06.783Z,98692.00
2022-09-14T06:24:36.874Z,98680.00
2022-09-14T06:27:06.277Z,98675.00
2022-09-14T06:29:35.455Z,98669.00
2022-09-14T06:32:05.141Z,98662.00
2022-09-14T06:34:34.358Z,98659.00
2022-09-14T06:37:03.772Z,98653.00
2022-09-14T06:39:32.933Z,98642.00
2022-09-14T06:42:02.136Z,98635.00
2022-09-14T06:44:31.609Z,98633.00
2022-09-14T06:47:01.100Z,98628.00
2022-09-14T06:49:30.393Z,98619.00
2022-09-14T06:52:01.946Z,98614.00
2022-09-14T06:54:31.388Z,98605.00
2022-09-14T06:57:00.746Z,98610.00
2022-09-14T06:59:30.112Z,98622.00
2022-09-14T07:01:59.342Z,98617.00
2022-09-14T07:04:28.487Z,98626.00
2022-09-14T07:06:57.749Z,98628.00
2022-09-14T07:09:26.997Z,98624.00
2022-09-14T07:11:56.405Z,98617.00
2022-09-14T07:14:30.337Z,98602.00
2022-09-14T07:17:01.378Z,98600.00
2022-09-14T07:19:30.693Z,98582.00
2022-09-14T07:21:59.903Z,98572.00
2022-09-14T07:24:29.431Z,98559.00
2022-09-14T07:26:59.066Z,98563.00
2022-09-14T07:29:28.349Z,98575.00
2022-09-14T07:31:57.685Z,98584.00
2022-09-14T07:34:27.105Z,98583.00
2022-09-14T07:36:56.232Z,98575.00
2022-09-14T07:39:25.475Z,98572.00
2022-09-14T07:41:54.748Z,98567.00
2022-09-14T07:44:24.278Z,98573.00
2022-09-14T07:46:53.468Z,98570.00
2022-09-14T07:49:23.403Z,98560.00
2022-09-14T07:51:54.512Z,98557.00
2022-09-14T07:54:23.771Z,98556.00
2022-09-14T07:56:52.970Z,98553.00
2022-09-14T07:59:38.234Z,98566.00
2022-09-14T08:02:12.167Z,98580.00
2022-09-14T08:04:41.584Z,98581.00
2022-09-14T08:07:11.198Z,98574.00
2022-09-14T08:09:40.804Z,98565.00
2022-09-14T08:12:10.032Z,98538.00
2022-09-14T08:14:39.189Z,98513.00
2022-09-14T08:17:08.677Z,98504.00
2022-09-14T08:19:38.560Z,98502.00
2022-09-14T08:22:07.940Z,98520.00
2022-09-14T08:24:37.194Z,98525.00
2022-09-14T08:27:06.452Z,98523.00
2022-09-14T08:29:35.688Z,98528.00
2022-09-14T08:32:05.048Z,98517.00
2022-09-14T08:34:34.593Z,98515.00
2022-09-14T08:37:04.037Z,98519.00
2022-09-14T08:39:33.151Z,98517.00
2022-09-14T08:42:03.640Z,98523.00
2022-09-14T08:44:56.430Z,98513.00
2022-09-14T08:47:35.424Z,98521.00
2022-09-14T08:50:19.628Z,98509.00
2022-09-14T08:52:55.969Z,98495.00
2022-09-14T08:55:52.757Z,98498.00
2022-09-14T08:59:06.013Z,98503.00
2022-09-14T09:02:21.615Z,98501.00
2022-09-14T09:05:31.299Z,98502.00
2022-09-14T09:08:32.727Z,98496.00
2022-09-14T09:11:06.729Z,98496.00
2022-09-14T09:13:41.886Z,98489.00
2022-09-14T09:16:14.818Z,98484.00
2022-09-14T09:19:03.840Z,98485.00
2022-09-14T09:21:46.647Z,98482.00
2022-09-14T09:24:41.781Z,98489.00
2022-09-14T09:27:16.076Z,98484.00
2022-09-14T09:29:48.589Z,98487.00
2022-09-14T09:32:27.503Z,98503.00
2022-09-14T09:34:57.060Z,98503.00
2022-09-14T09:37:26.467Z,98510.00
2022-09-14T09:39:55.984Z,98510.00
2022-09-14T09:42:29.886Z,98504.00
2022-09-14T09:45:04.470Z,98508.00
2022-09-14T09:47:43.234Z,98509.00
2022-09-14T09:50:23.214Z,98508.00
2022-09-14T09:53:02.087Z,98507.00
2022-09-14T09:55:41.766Z,98499.00
2022-09-14T09:58:30.563Z,98506.00
2022-09-14T10:01:23.148Z,98512.00
2022-09-14T10:04:32.048Z,98516.00
2022-09-14T10:07:01.606Z,98515.00
2022-09-14T10:09:31.042Z,98522.00
2022-09-14T10:12:06.592Z,98525.00
2022-09-14T10:14:41.442Z,98525.00
2022-09-14T10:17:26.628Z,98528.00
2022-09-14T10:19:57.131Z,98528.00
2022-09-14T10:22:36.289Z,98527.00
2022-09-14T10:25:28.947Z,98527.00
2022-09-14T10:28:03.145Z,98544.00
2022-09-14T10:30:54.835Z,98544.00
2022-09-14T10:33:24.910Z,98549.00
2022-09-14T10:36:17.525Z,98554.00
2022-09-14T10:39:15.372Z,98557.00
2022-09-14T10:42:18.847Z,98553.00
2022-09-14T10:45:24.811Z,98551.00
2022-09-14T10:48:21.444Z,98537.00
2022-09-14T10:51:42.210Z,98536.00
2022-09-14T10:54:58.363Z,98529.00
2022-09-14T10:58:10.786Z,98527.00
2022-09-14T11:01:15.748Z,98513.00
2022-09-14T11:04:20.868Z,98501.00
2022-09-14T11:07:23.600Z,98504.00
2022-09-14T11:10:39.685Z,98508.00
2022-09-14T11:13:39.982Z,98522.00
2022-09-14T11:17:00.160Z,98531.00
2022-09-14T11:20:09.695Z,98548.00
2022-09-14T11:23:19.982Z,98558.00
2022-09-14T11:26:15.632Z,98562.00
2022-09-14T11:29:09.606Z,98562.00
2022-09-14T11:32:20.313Z,98565.00
2022-09-14T11:35:16.814Z,98571.00
2022-09-14T11:38:04.459Z,98564.00
2022-09-14T11:40:53.456Z,98569.00
2022-09-14T11:43:48.708Z,98584.00
2022-09-14T11:46:44.043Z,98602.00
2022-09-14T11:50:01.404Z,98609.00
2022-09-14T11:52:35.077Z,98610.00
2022-09-14T11:55:12.059Z,98619.00
2022-09-14T11:57:41.501Z,98614.00
2022-09-14T12:00:38.812Z,98614.00
2022-09-14T12:03:23.790Z,98614.00
2022-09-14T12:05:53.124Z,98612.00
2022-09-14T12:08:42.358Z,98624.00
2022-09-14T12:11:34.229Z,98621.00
2022-09-14T12:14:37.550Z,98631.00
2022-09-14T12:17:39.304Z,98624.00
2022-09-14T12:21:00.962Z,98643.00
2022-09-14T12:23:54.278Z,98660.00
2022-09-14T12:26:36.081Z,98672.00
2022-09-14T12:29:34.924Z,98680.00
2022-09-14T12:32:25.221Z,98696.00
2022-09-14T12:35:46.425Z,98709.00
2022-09-14T12:39:02.082Z,98715.00
2022-09-14T12:42:25.357Z,98725.00
2022-09-14T12:44:56.375Z,98737.00
2022-09-14T12:47:52.489Z,98751.00
2022-09-14T12:50:24.067Z,98760.00
2022-09-14T12:53:31.118Z,98755.00
2022-09-14T12:56:47.234Z,98760.00
2022-09-14T13:00:15.531Z,98767.00
2022-09-14T13:03:21.741Z,98769.00
2022-09-14T13:05:52.167Z,98777.00
2022-09-14T13:08:26.453Z,98783.00
2022-09-14T13:10:55.960Z,98794.00
2022-09-14T13:13:33.134Z,98797.00
2022-09-14T13:16:09.362Z,98798.00
2022-09-14T13:18:39.834Z,98798.00
2022-09-14T13:21:25.071Z,98806.00
2022-09-14T13:23:55.584Z,98808.00
2022-09-14T13:26:35.283Z,98808.00
2022-09-14T13:29:09.126Z,98814.00
2022-09-14T13:31:41.597Z,98813.00
2022-09-14T13:34:24.487Z,98814.00
2022-09-14T13:36:55.774Z,98818.00
2022-09-14T13:39:38.427Z,98819.00
2022-09-14T13:42:08.931Z,98826.00
2022-09-14T13:44:46.363Z,98826.00
2022-09-14T13:47:20.009Z,98831.00
2022-09-14T13:49:52.047Z,98846.00
2022-09-14T13:53:00.078Z,98848.00
2022-09-14T13:55:45.767Z,98841.00
2022-09-14T13:58:23.428Z,98845.00
2022-09-14T14:01:05.510Z,98841.00
2022-09-14T14:03:50.980Z,98845.00
2022-09-14T14:07:21.547Z,98848.00
2022-09-14T14:10:00.756Z,98848.00
2022-09-14T14:12:40.814Z,98844.00
2022-09-14T14:15:47.869Z,98851.00
2022-09-14T14:18:43.827Z,98852.00
2022-09-14T14:21:34.644Z,98851.00
2022-09-14T14:24:28.600Z,98852.00
2022-09-14T14:26:59.551Z,98860.00
2022-09-14T14:29:28.920Z,98859.00
2022-09-14T14:32:07.182Z,98847.00
2022-09-14T14:34:36.205Z,98844.00
2022-09-14T14:37:06.067Z,98837.00
2022-09-14T14:39:35.247Z,98840.00
2022-09-14T14:42:05.230Z,98840.00
2022-09-14T14:44:36.259Z,98842.00
2022-09-14T14:47:08.064Z,98849.00
2022-09-14T14:49:40.317Z,98850.00
2022-09-14T14:52:11.927Z,98856.00
2022-09-14T14:54:43.282Z,98859.00
2022-09-14T14:57:12.612Z,98862.00
2022-09-14T14:59:41.809Z,98865.00
2022-09-14T15:02:11.294Z,98863.00
2022-09-14T15:04:40.575Z,98872.00
2022-09-14T15:07:10.398Z,98875.00
2022-09-14T15:09:39.542Z,98870.00
2022-09-14T15:12:09.672Z,98869.00
2022-09-14T15:14:38.779Z,98864.00
2022-09-14T15:17:07.986Z,98870.00
2022-09-14T15:19:37.174Z,98862.00
2022-09-14T15:22:06.556Z,98854.00
2022-09-14T15:24:35.695Z,98858.00
2022-09-14T15:27:06.628Z,98860.00
2022-09-14T15:29:35.816Z,98860.00
2022-09-14T15:32:05.233Z,98854.00
2022-09-14T15:34:34.424Z,98848.00
2022-09-14T15:37:03.858Z,98861.00
2022-09-14T15:39:33.785Z,98852.00
2022-09-14T15:42:03.978Z,98850.00
2022-09-14T15:44:35.150Z,98848.00
2022-09-14T15:47:04.938Z,98848.00
2022-09-14T15:49:34.189Z,98843.00
2022-09-14T15:52:03.892Z,98840.00
2022-09-14T15:54:38.887Z,98845.00
2022-09-14T15:57:12.246Z,98841.00
2022-09-14T15:59:41.823Z,98820.00
2022-09-14T16:02:14.087Z,98818.00
2022-09-14T16:04:43.354Z,98801.00
2022-09-14T16:07:12.632Z,98806.00
2022-09-14T16:09:43.280Z,98809.00
2022-09-14T16:12:14.946Z,98801.00
2022-09-14T16:14:44.178Z,98813.00
2022-09-14T16:17:13.439Z,98809.00
2022-09-14T16:19:42.604Z,98809.00
2022-09-14T16:22:12.164Z,98809.00
2022-09-14T16:24:41.487Z,98812.00
2022-09-14T16:27:10.720Z,98819.00
2022-09-14T16:29:41.444Z,98810.00
2022-09-14T16:32:10.736Z,98815.00
2022-09-14T16:34:41.760Z,98806.00
2022-09-14T16:37:11.008Z,98819.00
2022-09-14T16:39:40.193Z,98821.00
2022-09-14T16:42:12.300Z,98821.00
2022-09-14T16:44:42.274Z,98830.00
2022-09-14T16:47:11.975Z,98834.00
2022-09-14T16:49:41.324Z,98833.00
2022-09-14T16:52:13.678Z,98835.00
2022-09-14T16:54:42.889Z,98834.00
2022-09-14T16:57:17.772Z,98844.00
2022-09-14T16:59:47.011Z,98840.00
2022-09-14T17:02:18.561Z,98839.00
2022-09-14T17:04:47.922Z,98839.00
2022-09-14T17:07:17.223Z,98836.00
2022-09-14T17:09:46.442Z,98833.00
2022-09-14T17:12:15.701Z,98826.00
2022-09-14T17:14:44.926Z,98815.00
2022-09-14T17:17:14.076Z,98808.00
2022-09-14T17:19:43.825Z,98811.00
2022-09-14T17:22:14.817Z,98810.00
2022-09-14T17:24:43.931Z,98808.00
2022-09-14T17:27:13.181Z,98811.00
2022-09-14T17:29:42.412Z,98817.00
2022-09-14T17:32:14.809Z,98815.00
2022-09-14T17:34:44.594Z,98810.00
2022-09-14T17:37:13.798Z,98811.00
2022-09-14T17:39:43.054Z,98810.00
2022-09-14T17:42:12.353Z,98804.00
2022-09-14T17:44:42.026Z,98806.00
2022-09-14T17:47:11.250Z,98811.00
2022-09-14T17:49:40.502Z,98820.00
2022-09-14T17:52:09.703Z,98820.00
2022-09-14T17:54:38.948Z,98820.00
2022-09-14T17:57:08.187Z,98822.00
2022-09-14T17:59:37.431Z,98820.00
2022-09-14T18:02:07.571Z,98813.00
2022-09-14T18:04:36.817Z,98808.00
2022-09-14T18:07:06.876Z,98812.00
2022-09-14T18:09:36.150Z,98803.00
2022-09-14T18:12:05.871Z,98802.00
2022-09-14T18:14:35.082Z,98795.00
2022-09-14T18:17:04.642Z,98788.00
2022-09-14T18:19:33.991Z,98785.00
2022-09-14T18:22:03.214Z,98788.00
2022-09-14T18:24:32.696Z,98786.00
2022-09-14T18:27:02.149Z,98778.00
2022-09-14T18:29:32.641Z,98773.00
2022-09-14T18:32:01.815Z,98772.00
2022-09-14T18:34:31.738Z,98760.00
2022-09-14T18:37:00.983Z,98756.00
2022-09-14T18:39:30.320Z,98753.00
2022-09-14T18:41:59.980Z,98745.00
2022-09-14T18:44:29.757Z,98746.00
2022-09-14T18:46:59.634Z,98744.00
2022-09-14T18:49:28.900Z,98749.00
2022-09-14T18:51:58.190Z,98744.00
2022-09-14T18:54:27.934Z,98749.00
2022-09-14T18:57:00.251Z,98749.00
2022-09-14T18:59:29.488Z,98749.00
2022-09-14T19:01:58.683Z,98739.00
2022-09-14T19:04:28.176Z,98737.00
2022-09-14T19:06:57.544Z,98728.00
2022-09-14T19:09:26.908Z,98720.00
2022-09-14T19:11:56.291Z,98715.00
2022-09-14T19:14:25.505Z,98713.00
2022-09-14T19:17:00.398Z,98701.00
2022-09-14T19:19:29.674Z,98706.00
2022-09-14T19:21:58.933Z,98700.00
2022-09-14T19:24:31.770Z,98706.00
2022-09-14T19:27:01.267Z,98711.00
2022-09-14T19:29:30.528Z,98707.00
2022-09-14T19:32:00.978Z,98718.00
2022-09-14T19:34:30.603Z,98720.00
2022-09-14T19:36:59.837Z,98726.00
2022-09-14T19:39:29.353Z,98724.00
2022-09-14T19:41:58.660Z,98726.00
2022-09-14T19:44:29.425Z,98715.00
2022-09-14T19:46:58.543Z,98714.00
2022-09-14T19:49:28.546Z,98717.00
2022-09-14T19:51:57.873Z,98714.00
2022-09-14T19:54:27.137Z,98707.00
2022-09-14T19:56:56.286Z,98704.00
2022-09-14T19:59:26.062Z,98694.00
2022-09-14T20:01:55.428Z,98693.00
2022-09-14T20:04:24.874Z,98689.00
2022-09-14T20:06:54.026Z,98691.00
2022-09-14T20:09:25.356Z,98689.00
2022-09-14T20:11:55.690Z,98685.00
2022-09-14T20:14:27.611Z,98685.00
2022-09-14T20:17:00.293Z,98681.00
2022-09-14T20:19:32.153Z,98679.00
2022-09-14T20:22:01.353Z,98684.00
2022-09-14T20:24:33.330Z,98682.00
2022-09-14T20:27:04.198Z,98682.00
2022-09-14T20:29:36.447Z,98683.00
2022-09-14T20:32:07.220Z,98688.00
2022-09-14T20:34:36.594Z,98683.00
2022-09-14T20:37:05.958Z,98679.00
2022-09-14T20:39:39.289Z,98677.00
2022-09-14T20:42:08.684Z,98676.00
2022-09-14T20:44:38.761Z,98666.00
2022-09-14T20:47:08.131Z,98669.00
2022-09-14T20:49:37.292Z,98664.00
2022-09-14T20:52:06.457Z,98648.00
2022-09-14T20:54:35.641Z,98644.00
2022-09-14T20:57:04.893Z,98651.00
2022-09-14T20:59:34.329Z,98647.00
2022-09-14T21:02:05.550Z,98653.00
2022-09-14T21:04:37.133Z,98644.00
2022-09-14T21:07:07.085Z,98634.00
2022-09-14T21:09:37.382Z,98629.00
2022-09-14T21:12:06.818Z,98628.00
2022-09-14T21:14:35.998Z,98622.00
2022-09-14T21:17:05.195Z,98623.00
2022-09-14T21:19:34.876Z,98614.00
2022-09-14T21:22:04.092Z,98604.00
2022-09-14T21:24:36.108Z,98607.00
2022-09-14T21:27:06.222Z,98608.00
2022-09-14T21:29:35.738Z,98607.00
2022-09-14T21:32:08.896Z,98608.00
2022-09-14T21:34:38.452Z,98603.00
2022-09-14T21:37:07.766Z,98606.00
2022-09-14T21:39:39.193Z,98607.00
2022-09-14T21:42:09.013Z,98617.00
2022-09-14T21:44:39.049Z,98612.00
2022-09-14T21:47:08.439Z,98614.00
2022-09-14T21:49:37.704Z,98621.00
2022-09-14T21:52:06.978Z,98625.00
2022-09-14T21:54:36.225Z,98636.00
2022-09-14T21:57:05.600Z,98629.00
2022-09-14T21:59:34.746Z,98632.00
2022-09-14T22:02:04.062Z,98635.00
2022-09-14T22:04:33.373Z,98637.00
2022-09-14T22:07:02.500Z,98639.00
2022-09-14T22:09:31.737Z,98641.00
2022-09-14T22:12:01.294Z,98642.00
2022-09-14T22:14:31.483Z,98638.00
2022-09-14T22:17:00.763Z,98641.00
2022-09-14T22:19:33.065Z,98637.00
2022-09-14T22:22:02.355Z,98644.00
2022-09-14T22:24:38.086Z,98641.00
2022-09-14T22:27:12.054Z,98638.00
2022-09-14T22:29:42.482Z,98645.00
2022-09-14T22:32:13.100Z,98637.00
2022-09-14T22:34:46.518Z,98640.00
2022-09-14T22:37:18.231Z,98635.00
2022-09-14T22:39:48.027Z,98637.00
2022-09-14T22:42:17.187Z,98652.00
2022-09-14T22:44:46.401Z,98647.00
2022-09-14T22:47:16.126Z,98647.00
2022-09-14T22:49:45.452Z,98650.00
2022-09-14T22:52:14.735Z,98651.00
2022-09-14T22:54:44.075Z,98649.00
2022-09-14T22:57:13.230Z,98652.00
2022-09-14T22:59:42.465Z,98667.00
2022-09-14T23:02:11.836Z,98677.00
2022-09-14T23:04:41.144Z,98671.00
2022-09-14T23:07:10.390Z,98675.00
2022-09-14T23:09:40.578Z,98670.00
2022-09-14T23:12:09.792Z,98662.00
2022-09-14T23:14:39.028Z,98663.00
2022-09-14T23:17:08.373Z,98668.00
2022-09-14T23:19:37.521Z,98660.00
2022-09-14T23:22:06.736Z,98664.00
2022-09-14T23:24:36.002Z,98662.00
2022-09-14T23:27:05.514Z,98668.00
2022-09-14T23:29:34.711Z,98673.00
2022-09-14T23:32:04.739Z,98674.00
2022-09-14T23:34:34.566Z,98683.00
2022-09-14T23:37:03.913Z,98685.00
2022-09-14T23:39:36.066Z,98685.00
2022-09-14T23:42:05.485Z,98687.00
2022-09-14T23:44:35.086Z,98697.00
2022-09-14T23:47:05.009Z,98703.00
2022-09-14T23:49:34.198Z,98704.00
2022-09-14T23:52:04.016Z,98699.00
2022-09-14T23:54:33.290Z,98712.00
2022-09-14T23:57:02.515Z,98711.00
2022-09-14T23:59:31.610Z,98717.00
